createdAt,value
2019-05-27T00:00:51.359Z,15.24
2019-05-27T00:01:51.367Z,15.25
2019-05-27T00:02:51.117Z,15.37
2019-05-27T00:03:53.237Z,15.25
2019-05-27T00:04:51.362Z,15.36
2019-05-27T00:05:51.643Z,15.28
2019-05-27T00:06:51.613Z,15.25
2019-05-27T00:07:51.336Z,15.36
2019-05-27T00:08:52.767Z,15.27
2019-05-27T00:09:54.614Z,15.29
2019-05-27T00:10:51.325Z,15.37
2019-05-27T00:11:51.069Z,15.35
2019-05-27T00:12:51.439Z,15.24
2019-05-27T00:13:51.573Z,15.25
2019-05-27T00:14:51.613Z,15.22
2019-05-27T00:15:51.572Z,15.25
2019-05-27T00:16:51.369Z,15.22
2019-05-27T00:17:51.126Z,15.24
2019-05-27T00:18:51.305Z,15.21
2019-05-27T00:19:57.623Z,15.22
2019-05-27T00:20:51.571Z,15.31
2019-05-27T00:21:51.589Z,15.28
2019-05-27T00:22:51.321Z,15.27
2019-05-27T00:23:51.035Z,15.33
2019-05-27T00:24:51.176Z,15.43
2019-05-27T00:25:51.275Z,15.4
2019-05-27T00:26:51.279Z,15.47
2019-05-27T00:27:51.278Z,15.46
2019-05-27T00:28:51.261Z,15.54
2019-05-27T00:29:51.523Z,15.51
2019-05-27T00:30:54.305Z,15.49
2019-05-27T00:31:51.522Z,15.46
2019-05-27T00:32:51.512Z,15.46
2019-05-27T00:33:51.272Z,15.49
2019-05-27T00:34:51.516Z,15.43
2019-05-27T00:35:51.283Z,15.44
2019-05-27T00:36:51.258Z,15.37
2019-05-27T00:37:51.487Z,15.39
2019-05-27T00:38:50.995Z,15.39
2019-05-27T00:39:51.554Z,15.33
2019-05-27T00:40:51.252Z,15.43
2019-05-27T00:41:52.682Z,15.33
2019-05-27T00:42:51.014Z,15.31
2019-05-27T00:43:51.243Z,15.35
2019-05-27T00:44:51.243Z,15.46
2019-05-27T00:45:51.288Z,15.39
2019-05-27T00:46:50.977Z,15.39
2019-05-27T00:47:51.235Z,15.44
2019-05-27T00:48:51.463Z,15.4
2019-05-27T00:49:51.477Z,15.46
2019-05-27T00:50:51.474Z,15.42
2019-05-27T00:51:52.647Z,15.39
2019-05-27T00:52:54.288Z,15.33
2019-05-27T00:53:51.204Z,15.47
2019-05-27T00:54:51.219Z,15.39
2019-05-27T00:55:51.214Z,15.4
2019-05-27T00:56:51.202Z,15.42
2019-05-27T00:57:51.213Z,15.44
2019-05-27T00:58:51.442Z,15.46
2019-05-27T00:59:51.188Z,15.43
2019-05-27T01:00:51.446Z,15.37
2019-05-27T01:01:51.197Z,15.36
2019-05-27T01:02:57.481Z,15.33
2019-05-27T01:03:51.475Z,15.35
2019-05-27T01:04:51.482Z,15.35
2019-05-27T01:05:51.435Z,15.24
2019-05-27T01:06:51.472Z,15.22
2019-05-27T01:07:51.709Z,15.14
2019-05-27T01:08:51.432Z,15.11
2019-05-27T01:09:51.178Z,15.06
2019-05-27T01:10:51.425Z,15.07
2019-05-27T01:11:51.486Z,15
2019-05-27T01:12:51.190Z,15
2019-05-27T01:13:54.201Z,14.97
2019-05-27T01:14:51.428Z,14.89
2019-05-27T01:15:51.186Z,14.89
2019-05-27T01:16:51.411Z,14.91
2019-05-27T01:17:51.180Z,14.92
2019-05-27T01:18:51.404Z,14.91
2019-05-27T01:19:51.410Z,14.89
2019-05-27T01:20:51.421Z,14.97
2019-05-27T01:21:51.404Z,15.02
2019-05-27T01:22:50.929Z,14.91
2019-05-27T01:23:51.095Z,14.86
2019-05-27T01:24:54.186Z,14.88
2019-05-27T01:25:51.391Z,14.88
2019-05-27T01:26:51.138Z,14.81
2019-05-27T01:27:51.384Z,14.78
2019-05-27T01:28:51.150Z,14.85
2019-05-27T01:29:51.162Z,14.88
2019-05-27T01:30:51.135Z,14.92
2019-05-27T01:31:51.161Z,14.88
2019-05-27T01:32:50.883Z,14.91
2019-05-27T01:33:51.449Z,14.89
2019-05-27T01:34:54.228Z,14.92
2019-05-27T01:35:54.411Z,14.85
2019-05-27T01:36:50.874Z,14.88
2019-05-27T01:37:51.152Z,14.78
2019-05-27T01:38:51.122Z,14.86
2019-05-27T01:39:52.816Z,14.7
2019-05-27T01:40:51.107Z,14.78
2019-05-27T01:41:51.101Z,14.72
2019-05-27T01:42:51.450Z,14.68
2019-05-27T01:43:51.086Z,14.72
2019-05-27T01:44:51.089Z,14.65
2019-05-27T01:45:57.564Z,14.7
2019-05-27T01:46:51.339Z,14.59
2019-05-27T01:47:51.086Z,14.55
2019-05-27T01:48:51.078Z,14.62
2019-05-27T01:49:51.325Z,14.68
2019-05-27T01:50:50.830Z,14.53
2019-05-27T01:51:51.077Z,14.6
2019-05-27T01:52:51.326Z,14.54
2019-05-27T01:53:51.063Z,14.37
2019-05-27T01:54:51.058Z,14.41
2019-05-27T01:55:50.803Z,14.36
2019-05-27T01:56:54.094Z,14.41
2019-05-27T01:57:51.299Z,14.37
2019-05-27T01:58:51.043Z,14.35
2019-05-27T01:59:51.297Z,14.37
2019-05-27T02:00:51.282Z,14.41
2019-05-27T02:01:51.343Z,14.33
2019-05-27T02:02:51.310Z,14.3
2019-05-27T02:03:51.053Z,14.28
2019-05-27T02:04:51.121Z,14.23
2019-05-27T02:05:50.849Z,14.15
2019-05-27T02:06:51.691Z,14.22
2019-05-27T02:07:54.317Z,14.2
2019-05-27T02:08:51.018Z,14.14
2019-05-27T02:09:51.322Z,14.23
2019-05-27T02:10:50.763Z,14.14
2019-05-27T02:11:50.754Z,14.17
2019-05-27T02:12:51.337Z,14.14
2019-05-27T02:13:51.005Z,14.08
2019-05-27T02:14:51.046Z,13.99
2019-05-27T02:15:51.250Z,14
2019-05-27T02:16:50.749Z,13.92
2019-05-27T02:17:54.144Z,13.9
2019-05-27T02:18:50.989Z,13.86
2019-05-27T02:19:51.242Z,13.89
2019-05-27T02:20:50.741Z,13.79
2019-05-27T02:21:51.230Z,13.87
2019-05-27T02:22:50.985Z,13.83
2019-05-27T02:23:51.218Z,13.83
2019-05-27T02:24:50.963Z,13.81
2019-05-27T02:25:51.236Z,13.83
2019-05-27T02:26:50.964Z,13.72
2019-05-27T02:27:50.974Z,13.7
2019-05-27T02:28:53.742Z,13.72
2019-05-27T02:29:51.216Z,13.7
2019-05-27T02:30:50.971Z,13.67
2019-05-27T02:31:51.213Z,13.67
2019-05-27T02:32:50.967Z,13.6
2019-05-27T02:33:50.717Z,13.65
2019-05-27T02:34:50.696Z,13.54
2019-05-27T02:35:50.957Z,13.56
2019-05-27T02:36:51.220Z,13.52
2019-05-27T02:37:50.955Z,13.56
2019-05-27T02:38:51.466Z,13.62
2019-05-27T02:39:53.974Z,13.65
2019-05-27T02:40:51.191Z,13.72
2019-05-27T02:41:51.191Z,13.7
2019-05-27T02:42:51.213Z,13.9
2019-05-27T02:43:51.179Z,13.86
2019-05-27T02:44:50.983Z,13.85
2019-05-27T02:45:51.211Z,13.79
2019-05-27T02:46:51.225Z,13.78
2019-05-27T02:47:50.733Z,13.74
2019-05-27T02:48:51.227Z,13.71
2019-05-27T02:49:52.337Z,13.78
2019-05-27T02:50:53.689Z,13.78
2019-05-27T02:51:51.138Z,13.71
2019-05-27T02:52:50.898Z,13.67
2019-05-27T02:53:50.931Z,13.67
2019-05-27T02:54:51.132Z,13.7
2019-05-27T02:55:50.889Z,13.71
2019-05-27T02:56:50.878Z,13.78
2019-05-27T02:57:51.144Z,13.7
2019-05-27T02:58:50.877Z,13.68
2019-05-27T02:59:50.899Z,13.7
2019-05-27T03:00:54.144Z,13.7
2019-05-27T03:01:54.852Z,13.77
2019-05-27T03:02:50.908Z,13.75
2019-05-27T03:03:51.141Z,13.74
2019-05-27T03:04:51.127Z,13.74
2019-05-27T03:05:51.104Z,13.74
2019-05-27T03:06:55.384Z,13.7
2019-05-27T03:07:50.861Z,13.77
2019-05-27T03:08:51.177Z,13.79
2019-05-27T03:09:51.092Z,13.87
2019-05-27T03:10:50.867Z,13.79
2019-05-27T03:11:55.632Z,13.79
2019-05-27T03:12:51.080Z,13.74
2019-05-27T03:13:51.092Z,13.74
2019-05-27T03:14:51.075Z,13.75
2019-05-27T03:15:51.068Z,13.71
2019-05-27T03:16:56.176Z,13.72
2019-05-27T03:17:51.110Z,13.68
2019-05-27T03:18:51.055Z,13.7
2019-05-27T03:19:51.045Z,13.68
2019-05-27T03:20:51.044Z,13.78
2019-05-27T03:21:50.786Z,13.83
2019-05-27T03:22:57.050Z,13.78
2019-05-27T03:23:51.036Z,13.83
2019-05-27T03:24:51.042Z,13.83
2019-05-27T03:25:51.048Z,13.86
2019-05-27T03:26:50.774Z,13.79
2019-05-27T03:27:50.783Z,13.92
2019-05-27T03:28:50.770Z,13.85
2019-05-27T03:29:51.004Z,13.85
2019-05-27T03:30:50.844Z,13.87
2019-05-27T03:31:50.551Z,13.86
2019-05-27T03:32:52.221Z,13.9
2019-05-27T03:33:54.054Z,13.85
2019-05-27T03:34:51.035Z,13.85
2019-05-27T03:35:50.996Z,13.86
2019-05-27T03:36:50.739Z,13.83
2019-05-27T03:37:50.559Z,13.83
2019-05-27T03:38:50.756Z,13.86
2019-05-27T03:39:50.992Z,13.86
2019-05-27T03:40:50.743Z,13.95
2019-05-27T03:41:50.722Z,14
2019-05-27T03:42:50.970Z,13.96
2019-05-27T03:43:53.991Z,13.92
2019-05-27T03:44:50.708Z,14
2019-05-27T03:45:50.713Z,13.97
2019-05-27T03:46:50.989Z,13.96
2019-05-27T03:47:50.967Z,14.11
2019-05-27T03:48:50.954Z,14.08
2019-05-27T03:49:50.974Z,14.1
2019-05-27T03:50:50.958Z,14.03
2019-05-27T03:51:50.936Z,14.11
2019-05-27T03:52:50.729Z,14.14
2019-05-27T03:53:50.680Z,14.08
2019-05-27T03:54:53.709Z,14.1
2019-05-27T03:55:50.680Z,14.12
2019-05-27T03:56:50.923Z,14.14
2019-05-27T03:57:50.789Z,14.08
2019-05-27T03:58:50.940Z,14.07
2019-05-27T03:59:50.691Z,14.12
2019-05-27T04:00:50.705Z,14.11
2019-05-27T04:01:50.923Z,14.23
2019-05-27T04:02:55.003Z,14.2
2019-05-27T04:03:50.645Z,14.35
2019-05-27T04:04:50.929Z,14.4
2019-05-27T04:05:52.068Z,14.43
2019-05-27T04:06:50.649Z,14.51
2019-05-27T04:07:50.403Z,14.58
2019-05-27T04:08:50.674Z,14.55
2019-05-27T04:09:50.883Z,14.59
2019-05-27T04:10:50.948Z,14.72
2019-05-27T04:11:50.909Z,14.63
2019-05-27T04:12:50.410Z,14.68
2019-05-27T04:13:50.902Z,14.82
2019-05-27T04:14:50.879Z,14.88
2019-05-27T04:15:52.055Z,14.91
2019-05-27T04:16:53.657Z,14.91
2019-05-27T04:17:50.820Z,15.02
2019-05-27T04:18:50.655Z,15
2019-05-27T04:19:50.862Z,15.03
2019-05-27T04:20:50.614Z,15.11
2019-05-27T04:21:50.869Z,15.24
2019-05-27T04:22:50.629Z,15.39
2019-05-27T04:23:55.746Z,15.4
2019-05-27T04:24:50.855Z,15.54
2019-05-27T04:25:50.604Z,15.61
2019-05-27T04:26:53.651Z,15.73
2019-05-27T04:27:50.856Z,15.83
2019-05-27T04:28:54.465Z,15.82
2019-05-27T04:29:50.609Z,15.83
2019-05-27T04:30:50.845Z,15.83
2019-05-27T04:31:50.611Z,15.83
2019-05-27T04:32:51.156Z,15.82
2019-05-27T04:33:50.840Z,15.94
2019-05-27T04:34:50.348Z,16
2019-05-27T04:35:50.857Z,16.04
2019-05-27T04:36:50.850Z,16.08
2019-05-27T04:37:52.997Z,16.1
2019-05-27T04:38:50.927Z,16.12
2019-05-27T04:39:50.601Z,16.08
2019-05-27T04:40:50.849Z,16.09
2019-05-27T04:41:50.597Z,16.05
2019-05-27T04:42:50.592Z,16.09
2019-05-27T04:43:50.861Z,16.04
2019-05-27T04:44:50.846Z,15.98
2019-05-27T04:45:50.869Z,15.8
2019-05-27T04:46:50.834Z,15.77
2019-05-27T04:47:53.284Z,15.58
2019-05-27T04:48:53.630Z,15.61
2019-05-27T04:49:50.834Z,15.62
2019-05-27T04:50:50.850Z,15.44
2019-05-27T04:51:50.322Z,15.46
2019-05-27T04:52:50.602Z,15.39
2019-05-27T04:53:50.817Z,15.37
2019-05-27T04:54:50.617Z,15.42
2019-05-27T04:55:54.771Z,15.46
2019-05-27T04:56:50.824Z,15.47
2019-05-27T04:57:50.337Z,15.35
2019-05-27T04:58:53.609Z,15.25
2019-05-27T04:59:53.856Z,15.21
2019-05-27T05:00:50.825Z,15.06
2019-05-27T05:01:50.820Z,14.97
2019-05-27T05:02:50.570Z,14.94
2019-05-27T05:03:50.816Z,14.99
2019-05-27T05:04:50.817Z,15.24
2019-05-27T05:05:50.570Z,15.36
2019-05-27T05:06:50.805Z,15.4
2019-05-27T05:07:50.563Z,15.42
2019-05-27T05:08:50.302Z,15.58
2019-05-27T05:09:57.097Z,15.59
2019-05-27T05:10:50.833Z,15.51
2019-05-27T05:11:50.815Z,15.52
2019-05-27T05:12:50.562Z,15.59
2019-05-27T05:13:53.190Z,15.59
2019-05-27T05:14:50.990Z,15.65
2019-05-27T05:15:50.786Z,15.62
2019-05-27T05:16:51.070Z,15.59
2019-05-27T05:17:50.544Z,15.73
2019-05-27T05:18:50.536Z,15.76
2019-05-27T05:19:50.533Z,15.84
2019-05-27T05:20:53.816Z,16.09
2019-05-27T05:21:50.791Z,16.09
2019-05-27T05:22:50.283Z,16.17
2019-05-27T05:23:50.763Z,16.16
2019-05-27T05:24:50.769Z,16.24
2019-05-27T05:25:50.778Z,16.31
2019-05-27T05:26:50.792Z,16.31
2019-05-27T05:27:50.524Z,16.38
2019-05-27T05:28:50.586Z,16.35
2019-05-27T05:29:50.525Z,16.36
2019-05-27T05:30:50.721Z,16.33
2019-05-27T05:31:53.741Z,16.36
2019-05-27T05:32:50.534Z,16.36
2019-05-27T05:33:50.511Z,16.46
2019-05-27T05:34:50.823Z,16.51
2019-05-27T05:35:50.262Z,16.64
2019-05-27T05:36:50.826Z,16.81
2019-05-27T05:37:50.551Z,16.79
2019-05-27T05:38:50.767Z,16.89
2019-05-27T05:39:51.999Z,16.93
2019-05-27T05:40:50.768Z,16.89
2019-05-27T05:41:53.798Z,16.75
2019-05-27T05:42:57.121Z,16.94
2019-05-27T05:43:50.532Z,17.11
2019-05-27T05:44:50.773Z,17.39
2019-05-27T05:45:50.288Z,17.57
2019-05-27T05:46:50.521Z,17.64
2019-05-27T05:47:50.792Z,17.64
2019-05-27T05:48:50.835Z,17.63
2019-05-27T05:49:50.522Z,17.63
2019-05-27T05:50:50.798Z,17.71
2019-05-27T05:51:50.534Z,17.64
2019-05-27T05:52:58.761Z,17.65
2019-05-27T05:53:50.791Z,17.64
2019-05-27T05:54:50.777Z,17.76
2019-05-27T05:55:53.808Z,17.7
2019-05-27T05:56:50.528Z,17.85
2019-05-27T05:57:50.558Z,18.05
2019-05-27T05:58:50.873Z,18.34
2019-05-27T05:59:50.796Z,18.62
2019-05-27T06:00:50.792Z,18.83
2019-05-27T06:01:50.787Z,19.16
2019-05-27T06:02:50.554Z,19.56
2019-05-27T06:03:54.675Z,19.94
2019-05-27T06:04:50.283Z,20.32
2019-05-27T06:05:50.782Z,20.52
2019-05-27T06:06:50.306Z,20.72
2019-05-27T06:07:50.571Z,20.8
2019-05-27T06:08:50.784Z,20.99
2019-05-27T06:09:50.280Z,21.32
2019-05-27T06:10:50.797Z,21.43
2019-05-27T06:11:50.543Z,21.52
2019-05-27T06:12:50.307Z,21.62
2019-05-27T06:13:51.150Z,21.69
2019-05-27T06:14:53.597Z,21.82
2019-05-27T06:15:51.123Z,21.96
2019-05-27T06:16:50.626Z,22.13
2019-05-27T06:17:50.562Z,22.26
2019-05-27T06:18:50.888Z,22.29
2019-05-27T06:19:53.231Z,22.18
2019-05-27T06:20:50.567Z,22.04
2019-05-27T06:21:50.707Z,21.96
2019-05-27T06:22:50.372Z,21.88
2019-05-27T06:23:50.827Z,21.91
2019-05-27T06:24:54.055Z,22.02
2019-05-27T06:25:50.591Z,22.13
2019-05-27T06:26:50.848Z,22.35
2019-05-27T06:27:50.610Z,22.5
2019-05-27T06:28:50.873Z,22.68
2019-05-27T06:29:50.604Z,22.7
2019-05-27T06:30:50.867Z,22.76
2019-05-27T06:31:50.614Z,22.83
2019-05-27T06:32:50.660Z,22.9
2019-05-27T06:33:50.397Z,23.03
2019-05-27T06:34:50.872Z,23.21
2019-05-27T06:35:53.698Z,23.17
2019-05-27T06:36:58.765Z,23.18
2019-05-27T06:37:50.389Z,23.27
2019-05-27T06:39:08.578Z,23.44
2019-05-27T06:39:50.397Z,23.48
2019-05-27T06:41:08.338Z,23.46
2019-05-27T06:41:50.654Z,23.55
2019-05-27T06:42:50.694Z,23.4
2019-05-27T06:43:50.680Z,23.36
2019-05-27T06:44:50.921Z,23.39
2019-05-27T06:45:50.923Z,23.37
2019-05-27T06:46:54.280Z,23.36
2019-05-27T06:47:50.682Z,23.37
2019-05-27T06:48:50.709Z,23.47
2019-05-27T06:50:14.862Z,23.65
2019-05-27T06:50:50.940Z,23.68
2019-05-27T06:51:50.969Z,23.76
2019-05-27T06:52:52.584Z,23.43
2019-05-27T06:53:50.473Z,23.28
2019-05-27T06:54:50.714Z,23.13
2019-05-27T06:55:51.991Z,23.17
2019-05-27T06:56:51.342Z,23.02
2019-05-27T06:57:53.777Z,22.91
2019-05-27T06:58:50.977Z,23.02
2019-05-27T06:59:50.731Z,23.13
2019-05-27T07:00:51.031Z,23.12
2019-05-27T07:01:51.082Z,23.18
2019-05-27T07:02:50.776Z,23
2019-05-27T07:03:51.004Z,22.99
2019-05-27T07:04:51.716Z,23.06
2019-05-27T07:05:51.030Z,23.2
2019-05-27T07:06:50.770Z,23.47
2019-05-27T07:07:54.061Z,23.48
2019-05-27T07:08:50.793Z,23.48
2019-05-27T07:09:51.091Z,23.56
2019-05-27T07:10:51.222Z,23.56
2019-05-27T07:11:51.120Z,23.69
2019-05-27T07:12:54.901Z,23.83
2019-05-27T07:13:51.191Z,24.17
2019-05-27T07:14:50.878Z,24.54
2019-05-27T07:15:51.054Z,24.92
2019-05-27T07:16:51.084Z,25.04
2019-05-27T07:17:50.897Z,25.07
2019-05-27T07:18:52.028Z,25.13
2019-05-27T07:19:51.205Z,25.18
2019-05-27T07:20:51.165Z,25.28
2019-05-27T07:21:51.130Z,25.51
2019-05-27T07:22:50.861Z,25.55
2019-05-27T07:23:50.863Z,25.55
2019-05-27T07:24:51.120Z,25.54
2019-05-27T07:25:50.879Z,25.44
2019-05-27T07:26:50.660Z,25.6
2019-05-27T07:27:50.961Z,25.72
2019-05-27T07:28:51.149Z,25.95
2019-05-27T07:29:53.689Z,26.1
2019-05-27T07:31:06.708Z,26.37
2019-05-27T07:31:55.261Z,26.31
2019-05-27T07:32:50.663Z,26.07
2019-05-27T07:33:51.082Z,26.06
2019-05-27T07:34:51.281Z,26.23
2019-05-27T07:35:51.255Z,26.19
2019-05-27T07:36:51.191Z,26.23
2019-05-27T07:37:50.721Z,26.45
2019-05-27T07:38:51.190Z,26.56
2019-05-27T07:39:51.798Z,26.55
2019-05-27T07:40:53.997Z,26.6
2019-05-27T07:41:51.008Z,26.7
2019-05-27T07:42:51.003Z,26.56
2019-05-27T07:43:50.989Z,26.51
2019-05-27T07:44:51.554Z,26.48
2019-05-27T07:45:50.998Z,26.55
2019-05-27T07:46:56.433Z,26.63
2019-05-27T07:47:51.011Z,26.77
2019-05-27T07:48:50.998Z,26.74
2019-05-27T07:49:54.271Z,26.84
2019-05-27T07:50:56.124Z,27.03
2019-05-27T07:51:51.017Z,26.96
2019-05-27T07:52:51.285Z,26.96
2019-05-27T07:53:51.313Z,26.7
2019-05-27T07:54:51.308Z,26.58
2019-05-27T07:55:54.580Z,26.56
2019-05-27T07:56:51.061Z,26.65
2019-05-27T07:57:50.822Z,26.58
2019-05-27T07:58:51.316Z,26.37
2019-05-27T07:59:51.330Z,26.43
2019-05-27T08:00:51.076Z,26.56
2019-05-27T08:02:43.045Z,27.03
2019-05-27T08:02:57.796Z,27.1
2019-05-27T08:03:54.516Z,27.2
2019-05-27T08:04:54.501Z,26.95
2019-05-27T08:05:54.382Z,26.65
2019-05-27T08:06:54.525Z,26.56
2019-05-27T08:07:54.545Z,26.68
2019-05-27T08:09:06.352Z,26.85
2019-05-27T08:09:54.779Z,26.95
2019-05-27T08:11:07.075Z,27.18
2019-05-27T08:11:54.302Z,26.99
2019-05-27T08:12:57.360Z,27
2019-05-27T08:14:01.081Z,26.56
2019-05-27T08:14:54.327Z,26
2019-05-27T08:15:54.598Z,25.66
2019-05-27T08:16:54.836Z,25.48
2019-05-27T18:35:39.271Z,19.47
2019-05-27T18:36:39.440Z,19.47
2019-05-27T18:37:38.934Z,19.52
2019-05-27T18:38:39.169Z,19.52
2019-05-27T18:39:39.184Z,19.49
2019-05-27T18:40:40.226Z,19.52
2019-05-27T18:41:39.438Z,19.52
2019-05-27T18:42:39.457Z,19.48
2019-05-27T18:43:39.366Z,19.45
2019-05-27T18:44:42.463Z,19.52
2019-05-27T18:45:39.190Z,19.51
2019-05-27T18:46:39.161Z,19.49
2019-05-27T18:47:39.167Z,19.37
2019-05-27T18:48:38.936Z,19.41
2019-05-27T18:49:39.173Z,19.44
2019-05-27T18:50:39.468Z,19.44
2019-05-27T18:51:39.433Z,19.37
2019-05-27T18:52:39.420Z,19.37
2019-05-27T18:53:39.417Z,19.39
2019-05-27T18:54:41.951Z,19.41
2019-05-27T18:55:44.788Z,19.33
2019-05-27T18:56:39.431Z,19.34
2019-05-27T18:57:39.413Z,19.26
2019-05-27T18:58:39.431Z,19.44
2019-05-27T18:59:39.155Z,19.22
2019-05-27T19:00:42.109Z,19.33
2019-05-27T19:01:38.912Z,19.29
2019-05-27T19:02:39.418Z,19.27
2019-05-27T19:03:38.910Z,19.24
2019-05-27T19:04:39.176Z,19.27
2019-05-27T19:05:45.192Z,19.26
2019-05-27T19:06:39.433Z,19.24
2019-05-27T19:07:39.416Z,19.26
2019-05-27T19:08:39.433Z,19.26
2019-05-27T19:09:39.426Z,19.24
2019-05-27T19:10:38.915Z,19.29
2019-05-27T19:11:40.020Z,19.24
2019-05-27T19:12:39.169Z,19.14
2019-05-27T19:13:42.446Z,19.14
2019-05-27T19:14:38.914Z,19.14
2019-05-27T19:15:39.478Z,19.15
2019-05-27T19:16:45.853Z,19.11
2019-05-27T19:17:46.718Z,19.09
2019-05-27T19:18:39.229Z,19.12
2019-05-27T19:19:39.439Z,19.08
2019-05-27T19:20:39.435Z,19.04
2019-05-27T19:21:39.430Z,19.09
2019-05-27T19:22:39.453Z,19.04
2019-05-27T19:23:38.923Z,19.04
2019-05-27T19:24:41.336Z,19.02
2019-05-27T19:25:39.422Z,19.08
2019-05-27T19:26:40.051Z,19.08
2019-05-27T19:27:46.630Z,18.99
2019-05-27T19:28:39.214Z,19.08
2019-05-27T19:29:39.426Z,19.08
2019-05-27T19:30:41.968Z,19.02
2019-05-27T19:31:39.175Z,19.04
2019-05-27T19:32:39.421Z,18.93
2019-05-27T19:33:39.165Z,18.99
2019-05-27T19:34:39.421Z,19.04
2019-05-27T19:35:39.489Z,19.08
2019-05-27T19:36:39.189Z,19
2019-05-27T19:37:41.727Z,18.96
2019-05-27T19:38:39.168Z,19.02
2019-05-27T19:39:39.425Z,18.99
2019-05-27T19:40:39.173Z,18.99
2019-05-27T19:41:43.036Z,18.98
2019-05-27T19:42:39.166Z,18.93
2019-05-27T19:43:39.186Z,18.98
2019-05-27T19:44:39.437Z,18.96
2019-05-27T19:45:39.432Z,18.95
2019-05-27T19:46:39.435Z,18.92
2019-05-27T19:47:39.524Z,18.96
2019-05-27T19:48:42.982Z,18.96
2019-05-27T19:49:39.424Z,18.9
2019-05-27T19:50:39.423Z,18.89
2019-05-27T19:51:41.237Z,18.86
2019-05-27T19:52:39.219Z,18.83
2019-05-27T19:53:39.202Z,18.81
2019-05-27T19:54:43.011Z,18.88
2019-05-27T19:55:39.184Z,18.83
2019-05-27T19:56:39.489Z,18.86
2019-05-27T19:57:55.244Z,18.8
2019-05-27T19:58:53.356Z,18.84
2019-05-27T19:59:44.836Z,18.83
2019-05-27T20:00:39.419Z,18.78
2019-05-27T20:01:39.173Z,18.83
2019-05-27T20:02:39.207Z,18.83
2019-05-27T20:03:39.200Z,18.83
2019-05-27T20:04:39.173Z,18.86
2019-05-27T20:05:39.180Z,18.83
2019-05-27T20:06:39.218Z,18.83
2019-05-27T20:07:39.172Z,18.77
2019-05-27T20:08:39.474Z,18.84
2019-05-27T20:09:39.781Z,18.74
2019-05-27T20:10:42.211Z,18.71
2019-05-27T20:11:39.429Z,18.74
2019-05-27T20:12:39.179Z,18.7
2019-05-27T20:13:39.167Z,18.58
2019-05-27T20:14:40.107Z,18.6
2019-05-27T20:15:39.181Z,18.65
2019-05-27T20:16:39.176Z,18.52
2019-05-27T20:17:39.272Z,18.58
2019-05-27T20:18:39.172Z,18.53
2019-05-27T20:19:39.516Z,18.55
2019-05-27T20:20:42.233Z,18.59
2019-05-27T20:21:39.173Z,18.56
2019-05-27T20:22:38.924Z,18.52
2019-05-27T20:23:39.477Z,18.4
2019-05-27T20:24:39.190Z,18.49
2019-05-27T20:25:39.394Z,18.43
2019-05-27T20:26:39.224Z,18.35
2019-05-27T20:27:39.198Z,18.37
2019-05-27T20:28:39.466Z,18.37
2019-05-27T20:29:38.990Z,18.34
2019-05-27T20:30:39.436Z,18.31
2019-05-27T20:31:42.240Z,18.37
2019-05-27T20:32:39.492Z,18.26
2019-05-27T20:33:39.438Z,18.28
2019-05-27T20:34:39.269Z,18.26
2019-05-27T20:35:39.192Z,18.23
2019-05-27T20:36:39.429Z,18.28
2019-05-27T20:37:39.449Z,18.26
2019-05-27T20:38:39.233Z,18.23
2019-05-27T20:39:42.700Z,18.2
2019-05-27T20:40:39.156Z,18.15
2019-05-27T20:41:39.200Z,18.19
2019-05-27T20:42:45.494Z,18.05
2019-05-27T20:43:39.192Z,18.07
2019-05-27T20:44:39.191Z,18.08
2019-05-27T20:45:39.179Z,18.04
2019-05-27T20:46:39.414Z,17.97
2019-05-27T20:47:39.431Z,17.9
2019-05-27T20:48:38.907Z,17.97
2019-05-27T20:49:39.413Z,17.89
2019-05-27T20:50:39.170Z,17.79
2019-05-27T20:51:39.215Z,17.85
2019-05-27T20:52:40.879Z,17.76
2019-05-27T20:53:42.445Z,17.78
2019-05-27T20:54:39.415Z,17.74
2019-05-27T20:55:39.161Z,17.74
2019-05-27T20:56:38.906Z,17.78
2019-05-27T20:57:38.918Z,17.76
2019-05-27T20:58:39.408Z,17.76
2019-05-27T20:59:39.411Z,17.71
2019-05-27T21:00:38.892Z,17.74
2019-05-27T21:01:39.431Z,17.78
2019-05-27T21:02:39.499Z,17.72
2019-05-27T21:03:45.018Z,17.72
2019-05-27T21:04:39.400Z,17.78
2019-05-27T21:05:39.154Z,17.7
2019-05-27T21:06:39.159Z,17.72
2019-05-27T21:07:38.902Z,17.72
2019-05-27T21:08:39.170Z,17.68
2019-05-27T21:09:39.415Z,17.7
2019-05-27T21:10:39.151Z,17.72
2019-05-27T21:11:39.159Z,17.72
2019-05-27T21:12:39.152Z,17.68
2019-05-27T21:13:39.405Z,17.67
2019-05-27T21:14:42.199Z,17.6
2019-05-27T21:15:39.144Z,17.68
2019-05-27T21:16:39.150Z,17.64
2019-05-27T21:17:39.167Z,17.68
2019-05-27T21:18:39.397Z,17.64
2019-05-27T21:19:38.902Z,17.68
2019-05-27T21:20:39.589Z,17.63
2019-05-27T21:21:40.411Z,17.57
2019-05-27T21:22:38.974Z,17.71
2019-05-27T21:23:39.139Z,17.65
2019-05-27T21:24:39.403Z,17.68
2019-05-27T21:25:45.407Z,17.71
2019-05-27T21:26:39.150Z,17.65
2019-05-27T21:27:39.394Z,17.65
2019-05-27T21:28:45.651Z,17.6
2019-05-27T21:29:39.404Z,17.64
2019-05-27T21:30:40.851Z,17.49
2019-05-27T21:31:39.144Z,17.44
2019-05-27T21:32:45.845Z,17.41
2019-05-27T21:33:39.152Z,17.38
2019-05-27T21:34:39.396Z,17.39
2019-05-27T21:35:40.293Z,17.46
2019-05-27T21:36:42.489Z,17.34
2019-05-27T21:37:39.394Z,17.39
2019-05-27T21:38:39.405Z,17.34
2019-05-27T21:39:38.882Z,17.33
2019-05-27T21:40:39.393Z,17.23
2019-05-27T21:41:39.237Z,17.24
2019-05-27T21:42:39.432Z,17.2
2019-05-27T21:43:39.159Z,17.15
2019-05-27T21:44:39.417Z,17.15
2019-05-27T21:45:41.191Z,17.08
2019-05-27T21:46:42.452Z,17.05
2019-05-27T21:47:39.386Z,17.06
2019-05-27T21:48:39.120Z,17.02
2019-05-27T21:49:39.408Z,17.09
2019-05-27T21:50:39.125Z,16.99
2019-05-27T21:51:39.391Z,17.01
2019-05-27T21:52:39.375Z,17.06
2019-05-27T21:53:39.142Z,17.02
2019-05-27T21:54:39.149Z,17.01
2019-05-27T21:55:39.121Z,17.02
2019-05-27T21:56:38.872Z,17.06
2019-05-27T21:57:42.161Z,17.04
2019-05-27T21:58:39.123Z,17.04
2019-05-27T21:59:39.387Z,17.08
2019-05-27T22:00:39.384Z,17.04
2019-05-27T22:01:39.126Z,17.09
2019-05-27T22:02:39.113Z,17.09
2019-05-27T22:03:39.115Z,17.12
2019-05-27T22:04:39.161Z,17.09
2019-05-27T22:05:39.362Z,17.11
2019-05-27T22:06:39.385Z,17.11
2019-05-27T22:07:39.385Z,17.12
2019-05-27T22:08:45.647Z,17.12
2019-05-27T22:09:38.901Z,17.19
2019-05-27T22:10:39.105Z,17.15
2019-05-27T22:11:39.359Z,17.15
2019-05-27T22:12:39.109Z,17.09
2019-05-27T22:13:39.359Z,17.09
2019-05-27T22:14:39.097Z,17.09
2019-05-27T22:15:39.095Z,16.99
2019-05-27T22:16:39.361Z,16.99
2019-05-27T22:17:39.100Z,16.99
2019-05-27T22:18:40.520Z,16.94
2019-05-27T22:19:42.404Z,16.94
2019-05-27T22:20:39.366Z,16.91
2019-05-27T22:21:39.384Z,16.89
2019-05-27T22:22:39.104Z,16.91
2019-05-27T22:23:39.362Z,16.86
2019-05-27T22:24:39.437Z,16.86
2019-05-27T22:25:39.147Z,16.89
2019-05-27T22:26:39.373Z,16.93
2019-05-27T22:27:39.167Z,16.86
2019-05-27T22:28:39.089Z,16.99
2019-05-27T22:29:45.493Z,16.93
2019-05-27T22:30:39.372Z,16.9
2019-05-27T22:31:38.833Z,16.84
2019-05-27T22:32:38.845Z,16.86
2019-05-27T22:33:39.089Z,16.81
2019-05-27T22:34:39.415Z,16.86
2019-05-27T22:35:39.348Z,16.83
2019-05-27T22:36:39.352Z,16.83
2019-05-27T22:37:39.095Z,16.89
2019-05-27T22:38:39.100Z,16.89
2019-05-27T22:39:39.392Z,16.91
2019-05-27T22:40:42.108Z,16.75
2019-05-27T22:41:39.347Z,16.71
2019-05-27T22:42:38.830Z,16.75
2019-05-27T22:43:39.357Z,16.75
2019-05-27T22:44:39.375Z,16.75
2019-05-27T22:45:39.082Z,16.78
2019-05-27T22:46:39.083Z,16.76
2019-05-27T22:47:39.076Z,16.71
2019-05-27T22:48:39.350Z,16.75
2019-05-27T22:49:39.077Z,16.74
2019-05-27T22:50:39.101Z,16.76
2019-05-27T22:51:40.532Z,16.69
2019-05-27T22:52:39.339Z,16.66
2019-05-27T22:53:39.351Z,16.69
2019-05-27T22:54:39.345Z,16.71
2019-05-27T22:55:39.081Z,16.71
2019-05-27T22:56:39.067Z,16.66
2019-05-27T22:57:39.078Z,16.68
2019-05-27T22:58:39.322Z,16.76
2019-05-27T22:59:39.335Z,16.72
2019-05-27T23:00:39.394Z,16.71
2019-05-27T23:01:40.802Z,16.78
2019-05-27T23:02:42.097Z,16.71
2019-05-27T23:03:39.140Z,16.71
2019-05-27T23:04:39.411Z,16.72
2019-05-27T23:05:39.064Z,16.71
2019-05-27T23:06:39.321Z,16.74
2019-05-27T23:07:39.077Z,16.69
2019-05-27T23:08:39.344Z,16.65
2019-05-27T23:09:39.047Z,16.72
2019-05-27T23:10:39.056Z,16.66
2019-05-27T23:11:39.320Z,16.74
2019-05-27T23:12:42.390Z,16.69
2019-05-27T23:13:39.321Z,16.72